sensor_id;sensor_type;location;lat;lon;timestamp;temperature;humidity
11963;DHT22;62678;52.130;5.584;2023-09-08T00:00:46;19.60;99.90
11963;DHT22;62678;52.130;5.584;2023-09-08T00:03:13;19.50;99.90
11963;DHT22;62678;52.130;5.584;2023-09-08T00:05:41;19.50;99.90
11963;DHT22;62678;52.130;5.584;2023-09-08T00:08:08;19.40;99.90
11963;DHT22;62678;52.130;5.584;2023-09-08T00:10:36;19.40;99.90
11963;DHT22;62678;52.130;5.584;2023-09-08T00:13:03;19.40;99.90
11963;DHT22;62678;52.130;5.584;2023-09-08T00:15:33;19.50;99.90
11963;DHT22;62678;52.130;5.584;2023-09-08T00:18:00;19.40;99.90
11963;DHT22;62678;52.130;5.584;2023-09-08T00:20:27;19.30;99.90
11963;DHT22;62678;52.130;5.584;2023-09-08T00:22:54;19.20;99.90
11963;DHT22;62678;52.130;5.584;2023-09-08T00:25:21;19.10;99.90
11963;DHT22;62678;52.130;5.584;2023-09-08T00:27:48;19.10;99.90
11963;DHT22;62678;52.130;5.584;2023-09-08T00:30:15;19.00;99.90
11963;DHT22;62678;52.130;5.584;2023-09-08T00:32:43;19.00;99.90
11963;DHT22;62678;52.130;5.584;2023-09-08T00:35:11;19.00;99.90
11963;DHT22;62678;52.130;5.584;2023-09-08T00:37:39;18.90;99.90
11963;DHT22;62678;52.130;5.584;2023-09-08T00:40:07;18.90;99.90
11963;DHT22;62678;52.130;5.584;2023-09-08T00:42:35;18.80;99.90
11963;DHT22;62678;52.130;5.584;2023-09-08T00:45:02;18.80;99.90
11963;DHT22;62678;52.130;5.584;2023-09-08T00:47:29;18.80;99.90
11963;DHT22;62678;52.130;5.584;2023-09-08T00:49:57;18.70;99.90
11963;DHT22;62678;52.130;5.584;2023-09-08T00:52:25;18.70;99.90
11963;DHT22;62678;52.130;5.584;2023-09-08T00:54:56;18.70;99.90
11963;DHT22;62678;52.130;5.584;2023-09-08T00:57:24;18.70;99.90
11963;DHT22;62678;52.130;5.584;2023-09-08T00:59:51;18.70;99.90
11963;DHT22;62678;52.130;5.584;2023-09-08T01:02:19;18.70;99.90
11963;DHT22;62678;52.130;5.584;2023-09-08T01:04:47;18.60;99.90
11963;DHT22;62678;52.130;5.584;2023-09-08T01:07:16;18.60;99.90
11963;DHT22;62678;52.130;5.584;2023-09-08T01:09:46;18.60;99.90
11963;DHT22;62678;52.130;5.584;2023-09-08T01:12:13;18.50;99.90
11963;DHT22;62678;52.130;5.584;2023-09-08T01:14:40;18.50;99.90
11963;DHT22;62678;52.130;5.584;2023-09-08T01:17:07;18.50;99.90
11963;DHT22;62678;52.130;5.584;2023-09-08T01:19:34;18.50;99.90
11963;DHT22;62678;52.130;5.584;2023-09-08T01:22:34;18.50;99.90
11963;DHT22;62678;52.130;5.584;2023-09-08T01:25:18;18.40;99.90
11963;DHT22;62678;52.130;5.584;2023-09-08T01:27:48;18.40;99.90
11963;DHT22;62678;52.130;5.584;2023-09-08T01:30:19;18.30;99.90
11963;DHT22;62678;52.130;5.584;2023-09-08T01:32:46;18.30;99.90
11963;DHT22;62678;52.130;5.584;2023-09-08T01:35:13;18.30;99.90
11963;DHT22;62678;52.130;5.584;2023-09-08T01:37:41;18.30;99.90
11963;DHT22;62678;52.130;5.584;2023-09-08T01:40:09;18.30;99.90
11963;DHT22;62678;52.130;5.584;2023-09-08T01:42:39;18.20;99.90
11963;DHT22;62678;52.130;5.584;2023-09-08T01:45:08;18.20;99.90
11963;DHT22;62678;52.130;5.584;2023-09-08T01:47:36;18.20;99.90
11963;DHT22;62678;52.130;5.584;2023-09-08T01:50:03;18.20;99.90
11963;DHT22;62678;52.130;5.584;2023-09-08T01:52:31;18.10;99.90
11963;DHT22;62678;52.130;5.584;2023-09-08T01:54:58;18.10;99.90
11963;DHT22;62678;52.130;5.584;2023-09-08T01:57:23;18.10;99.90
11963;DHT22;62678;52.130;5.584;2023-09-08T01:59:52;18.10;99.90
11963;DHT22;62678;52.130;5.584;2023-09-08T02:02:19;18.00;99.90
11963;DHT22;62678;52.130;5.584;2023-09-08T02:04:47;18.00;99.90
11963;DHT22;62678;52.130;5.584;2023-09-08T02:07:14;18.00;99.90
11963;DHT22;62678;52.130;5.584;2023-09-08T02:09:41;18.00;99.90
11963;DHT22;62678;52.130;5.584;2023-09-08T02:12:08;17.90;99.90
11963;DHT22;62678;52.130;5.584;2023-09-08T02:14:35;17.90;99.90
11963;DHT22;62678;52.130;5.584;2023-09-08T02:17:04;17.80;99.90
11963;DHT22;62678;52.130;5.584;2023-09-08T02:19:32;17.80;99.90
11963;DHT22;62678;52.130;5.584;2023-09-08T02:21:59;17.80;99.90
11963;DHT22;62678;52.130;5.584;2023-09-08T02:24:26;17.90;99.90
11963;DHT22;62678;52.130;5.584;2023-09-08T02:26:53;17.80;99.90
11963;DHT22;62678;52.130;5.584;2023-09-08T02:29:20;17.80;99.90
11963;DHT22;62678;52.130;5.584;2023-09-08T02:31:48;17.80;99.90
11963;DHT22;62678;52.130;5.584;2023-09-08T02:34:16;17.80;99.90
11963;DHT22;62678;52.130;5.584;2023-09-08T02:36:43;17.80;99.90
11963;DHT22;62678;52.130;5.584;2023-09-08T02:39:13;17.70;99.90
11963;DHT22;62678;52.130;5.584;2023-09-08T02:41:40;17.70;99.90
11963;DHT22;62678;52.130;5.584;2023-09-08T02:44:07;17.60;99.90
11963;DHT22;62678;52.130;5.584;2023-09-08T02:46:34;17.70;99.90
11963;DHT22;62678;52.130;5.584;2023-09-08T02:49:01;17.70;99.90
11963;DHT22;62678;52.130;5.584;2023-09-08T02:51:30;17.60;99.90
11963;DHT22;62678;52.130;5.584;2023-09-08T02:53:57;17.60;99.90
11963;DHT22;62678;52.130;5.584;2023-09-08T02:56:24;17.60;99.90
11963;DHT22;62678;52.130;5.584;2023-09-08T02:58:51;17.50;99.90
11963;DHT22;62678;52.130;5.584;2023-09-08T03:01:18;17.60;99.90
11963;DHT22;62678;52.130;5.584;2023-09-08T03:03:46;17.50;99.90
11963;DHT22;62678;52.130;5.584;2023-09-08T03:06:14;17.50;99.90
11963;DHT22;62678;52.130;5.584;2023-09-08T03:08:43;17.50;99.90
11963;DHT22;62678;52.130;5.584;2023-09-08T03:11:10;17.50;99.90
11963;DHT22;62678;52.130;5.584;2023-09-08T03:13:37;17.40;99.90
11963;DHT22;62678;52.130;5.584;2023-09-08T03:16:04;17.40;99.90
11963;DHT22;62678;52.130;5.584;2023-09-08T03:18:32;17.40;99.90
11963;DHT22;62678;52.130;5.584;2023-09-08T03:20:59;17.40;99.90
11963;DHT22;62678;52.130;5.584;2023-09-08T03:23:29;17.40;99.90
11963;DHT22;62678;52.130;5.584;2023-09-08T03:25:57;17.40;99.90
11963;DHT22;62678;52.130;5.584;2023-09-08T03:28:24;17.40;99.90
11963;DHT22;62678;52.130;5.584;2023-09-08T03:30:51;17.30;99.90
11963;DHT22;62678;52.130;5.584;2023-09-08T03:33:18;17.30;99.90
11963;DHT22;62678;52.130;5.584;2023-09-08T03:35:45;17.30;99.90
11963;DHT22;62678;52.130;5.584;2023-09-08T03:38:12;17.30;99.90
11963;DHT22;62678;52.130;5.584;2023-09-08T03:40:39;17.30;99.90
11963;DHT22;62678;52.130;5.584;2023-09-08T03:43:08;17.30;99.90
11963;DHT22;62678;52.130;5.584;2023-09-08T03:45:35;17.30;99.90
11963;DHT22;62678;52.130;5.584;2023-09-08T03:48:02;17.30;99.90
11963;DHT22;62678;52.130;5.584;2023-09-08T03:50:30;17.30;99.90
11963;DHT22;62678;52.130;5.584;2023-09-08T03:52:57;17.20;99.90
11963;DHT22;62678;52.130;5.584;2023-09-08T03:55:25;17.20;99.90
11963;DHT22;62678;52.130;5.584;2023-09-08T03:57:53;17.20;99.90
11963;DHT22;62678;52.130;5.584;2023-09-08T04:00:21;17.20;99.90
11963;DHT22;62678;52.130;5.584;2023-09-08T04:02:48;17.20;99.90
11963;DHT22;62678;52.130;5.584;2023-09-08T04:05:16;17.10;99.90
11963;DHT22;62678;52.130;5.584;2023-09-08T04:07:43;17.10;99.90
11963;DHT22;62678;52.130;5.584;2023-09-08T04:10:11;17.10;99.90
11963;DHT22;62678;52.130;5.584;2023-09-08T04:12:39;17.10;99.90
11963;DHT22;62678;52.130;5.584;2023-09-08T04:15:07;17.10;99.90
11963;DHT22;62678;52.130;5.584;2023-09-08T04:17:36;17.10;99.90
11963;DHT22;62678;52.130;5.584;2023-09-08T04:20:04;17.10;99.90
11963;DHT22;62678;52.130;5.584;2023-09-08T04:22:31;17.00;99.90
11963;DHT22;62678;52.130;5.584;2023-09-08T04:24:59;17.10;99.90
11963;DHT22;62678;52.130;5.584;2023-09-08T04:27:26;17.00;99.90
11963;DHT22;62678;52.130;5.584;2023-09-08T04:29:53;17.10;99.90
11963;DHT22;62678;52.130;5.584;2023-09-08T04:32:20;17.00;99.90
11963;DHT22;62678;52.130;5.584;2023-09-08T04:34:48;17.00;99.90
11963;DHT22;62678;52.130;5.584;2023-09-08T04:37:15;17.00;99.90
11963;DHT22;62678;52.130;5.584;2023-09-08T04:39:42;16.90;99.90
11963;DHT22;62678;52.130;5.584;2023-09-08T04:42:09;17.00;99.90
11963;DHT22;62678;52.130;5.584;2023-09-08T04:44:36;16.90;99.90
11963;DHT22;62678;52.130;5.584;2023-09-08T04:47:04;16.90;99.90
11963;DHT22;62678;52.130;5.584;2023-09-08T04:49:31;16.90;99.90
11963;DHT22;62678;52.130;5.584;2023-09-08T04:51:59;16.90;99.90
11963;DHT22;62678;52.130;5.584;2023-09-08T04:54:27;16.90;99.90
11963;DHT22;62678;52.130;5.584;2023-09-08T04:56:54;16.90;99.90
11963;DHT22;62678;52.130;5.584;2023-09-08T04:59:21;16.90;99.90
11963;DHT22;62678;52.130;5.584;2023-09-08T05:01:49;16.90;99.90
11963;DHT22;62678;52.130;5.584;2023-09-08T05:04:17;16.90;99.90
11963;DHT22;62678;52.130;5.584;2023-09-08T05:06:44;16.90;99.90
11963;DHT22;62678;52.130;5.584;2023-09-08T05:09:13;16.90;99.90
11963;DHT22;62678;52.130;5.584;2023-09-08T05:11:40;16.90;99.90
11963;DHT22;62678;52.130;5.584;2023-09-08T05:14:07;16.90;99.90
11963;DHT22;62678;52.130;5.584;2023-09-08T05:16:35;16.90;99.90
11963;DHT22;62678;52.130;5.584;2023-09-08T05:19:11;16.90;99.90
11963;DHT22;62678;52.130;5.584;2023-09-08T05:21:38;17.00;99.90
11963;DHT22;62678;52.130;5.584;2023-09-08T05:24:06;16.90;99.90
11963;DHT22;62678;52.130;5.584;2023-09-08T05:26:37;17.00;99.90
11963;DHT22;62678;52.130;5.584;2023-09-08T05:29:04;17.00;99.90
11963;DHT22;62678;52.130;5.584;2023-09-08T05:31:31;17.10;99.90
11963;DHT22;62678;52.130;5.584;2023-09-08T05:33:58;17.10;99.90
11963;DHT22;62678;52.130;5.584;2023-09-08T05:36:26;17.20;99.90
11963;DHT22;62678;52.130;5.584;2023-09-08T05:38:55;17.20;99.90
11963;DHT22;62678;52.130;5.584;2023-09-08T05:41:22;17.30;99.90
11963;DHT22;62678;52.130;5.584;2023-09-08T05:43:50;17.30;99.90
11963;DHT22;62678;52.130;5.584;2023-09-08T05:46:17;17.40;99.90
11963;DHT22;62678;52.130;5.584;2023-09-08T05:48:45;17.50;99.90
11963;DHT22;62678;52.130;5.584;2023-09-08T05:51:13;17.50;99.90
11963;DHT22;62678;52.130;5.584;2023-09-08T05:53:40;17.60;99.90
11963;DHT22;62678;52.130;5.584;2023-09-08T05:56:08;17.60;99.90
11963;DHT22;62678;52.130;5.584;2023-09-08T05:58:35;17.60;99.90
11963;DHT22;62678;52.130;5.584;2023-09-08T06:01:03;17.80;99.90
11963;DHT22;62678;52.130;5.584;2023-09-08T06:03:30;17.80;99.90
11963;DHT22;62678;52.130;5.584;2023-09-08T06:05:57;17.90;99.90
11963;DHT22;62678;52.130;5.584;2023-09-08T06:08:24;17.90;99.90
11963;DHT22;62678;52.130;5.584;2023-09-08T06:10:52;18.00;99.90
11963;DHT22;62678;52.130;5.584;2023-09-08T06:13:18;18.10;99.90
11963;DHT22;62678;52.130;5.584;2023-09-08T06:15:46;18.20;99.90
11963;DHT22;62678;52.130;5.584;2023-09-08T06:18:14;18.20;99.90
11963;DHT22;62678;52.130;5.584;2023-09-08T06:20:45;18.30;99.90
11963;DHT22;62678;52.130;5.584;2023-09-08T06:23:12;18.40;99.90
11963;DHT22;62678;52.130;5.584;2023-09-08T06:25:40;18.50;99.90
11963;DHT22;62678;52.130;5.584;2023-09-08T06:28:07;18.60;99.90
11963;DHT22;62678;52.130;5.584;2023-09-08T06:30:34;18.80;99.90
11963;DHT22;62678;52.130;5.584;2023-09-08T06:33:02;18.90;99.90
11963;DHT22;62678;52.130;5.584;2023-09-08T06:35:30;19.00;99.90
11963;DHT22;62678;52.130;5.584;2023-09-08T06:37:59;19.10;99.90
11963;DHT22;62678;52.130;5.584;2023-09-08T06:40:28;19.10;99.90
11963;DHT22;62678;52.130;5.584;2023-09-08T06:42:55;19.30;99.90
11963;DHT22;62678;52.130;5.584;2023-09-08T06:45:24;19.40;99.90
11963;DHT22;62678;52.130;5.584;2023-09-08T06:47:51;19.50;99.90
11963;DHT22;62678;52.130;5.584;2023-09-08T06:50:20;19.60;99.90
11963;DHT22;62678;52.130;5.584;2023-09-08T06:52:49;19.70;99.90
11963;DHT22;62678;52.130;5.584;2023-09-08T06:55:16;19.80;99.90
11963;DHT22;62678;52.130;5.584;2023-09-08T06:57:43;19.80;99.90
11963;DHT22;62678;52.130;5.584;2023-09-08T07:00:11;19.90;99.90
11963;DHT22;62678;52.130;5.584;2023-09-08T07:02:38;20.00;99.90
11963;DHT22;62678;52.130;5.584;2023-09-08T07:05:05;20.20;99.90
11963;DHT22;62678;52.130;5.584;2023-09-08T07:07:34;20.30;99.90
11963;DHT22;62678;52.130;5.584;2023-09-08T07:10:02;20.40;99.90
11963;DHT22;62678;52.130;5.584;2023-09-08T07:12:30;20.50;99.90
11963;DHT22;62678;52.130;5.584;2023-09-08T07:14:57;20.60;99.90
11963;DHT22;62678;52.130;5.584;2023-09-08T07:17:25;20.70;99.90
11963;DHT22;62678;52.130;5.584;2023-09-08T07:19:53;20.80;99.90
11963;DHT22;62678;52.130;5.584;2023-09-08T07:22:20;20.90;99.90
11963;DHT22;62678;52.130;5.584;2023-09-08T07:24:47;21.00;99.90
11963;DHT22;62678;52.130;5.584;2023-09-08T07:27:15;21.10;99.90
11963;DHT22;62678;52.130;5.584;2023-09-08T07:29:43;21.20;99.90
11963;DHT22;62678;52.130;5.584;2023-09-08T07:32:11;21.50;99.90
11963;DHT22;62678;52.130;5.584;2023-09-08T07:34:38;21.40;99.90
11963;DHT22;62678;52.130;5.584;2023-09-08T07:37:04;21.50;99.90
11963;DHT22;62678;52.130;5.584;2023-09-08T07:39:32;21.70;99.90
11963;DHT22;62678;52.130;5.584;2023-09-08T07:42:01;21.80;99.90
11963;DHT22;62678;52.130;5.584;2023-09-08T07:44:29;22.10;99.90
11963;DHT22;62678;52.130;5.584;2023-09-08T07:46:56;22.20;99.90
11963;DHT22;62678;52.130;5.584;2023-09-08T07:49:23;22.30;99.90
11963;DHT22;62678;52.130;5.584;2023-09-08T07:51:51;22.30;99.90
11963;DHT22;62678;52.130;5.584;2023-09-08T07:54:21;22.40;99.90
11963;DHT22;62678;52.130;5.584;2023-09-08T07:56:48;22.30;99.90
11963;DHT22;62678;52.130;5.584;2023-09-08T07:59:15;22.50;99.90
11963;DHT22;62678;52.130;5.584;2023-09-08T08:01:43;22.60;99.90
11963;DHT22;62678;52.130;5.584;2023-09-08T08:04:10;22.80;99.90
11963;DHT22;62678;52.130;5.584;2023-09-08T08:06:38;22.80;99.90
11963;DHT22;62678;52.130;5.584;2023-09-08T08:09:05;22.80;99.90
11963;DHT22;62678;52.130;5.584;2023-09-08T08:11:32;22.80;99.90
11963;DHT22;62678;52.130;5.584;2023-09-08T08:13:59;22.90;99.90
11963;DHT22;62678;52.130;5.584;2023-09-08T08:16:26;23.00;99.90
11963;DHT22;62678;52.130;5.584;2023-09-08T08:18:54;23.10;99.90
11963;DHT22;62678;52.130;5.584;2023-09-08T08:21:22;23.30;99.90
11963;DHT22;62678;52.130;5.584;2023-09-08T08:23:49;23.40;99.90
11963;DHT22;62678;52.130;5.584;2023-09-08T08:26:17;23.50;99.90
11963;DHT22;62678;52.130;5.584;2023-09-08T08:28:44;23.60;99.90
11963;DHT22;62678;52.130;5.584;2023-09-08T08:31:11;23.80;99.90
11963;DHT22;62678;52.130;5.584;2023-09-08T08:33:38;23.90;99.90
11963;DHT22;62678;52.130;5.584;2023-09-08T08:36:07;24.00;99.90
11963;DHT22;62678;52.130;5.584;2023-09-08T08:38:35;24.10;99.90
11963;DHT22;62678;52.130;5.584;2023-09-08T08:41:03;24.10;99.90
11963;DHT22;62678;52.130;5.584;2023-09-08T08:43:32;24.20;99.90
11963;DHT22;62678;52.130;5.584;2023-09-08T08:46:00;24.30;99.90
11963;DHT22;62678;52.130;5.584;2023-09-08T08:48:29;24.40;99.90
11963;DHT22;62678;52.130;5.584;2023-09-08T08:50:57;24.50;99.90
11963;DHT22;62678;52.130;5.584;2023-09-08T08:53:27;24.60;99.90
11963;DHT22;62678;52.130;5.584;2023-09-08T08:55:56;24.70;99.90
11963;DHT22;62678;52.130;5.584;2023-09-08T08:58:26;24.80;99.90
11963;DHT22;62678;52.130;5.584;2023-09-08T09:00:55;24.90;99.90
11963;DHT22;62678;52.130;5.584;2023-09-08T09:03:25;24.80;99.90
11963;DHT22;62678;52.130;5.584;2023-09-08T09:05:53;24.90;99.90
11963;DHT22;62678;52.130;5.584;2023-09-08T09:08:20;25.00;99.90
11963;DHT22;62678;52.130;5.584;2023-09-08T09:10:51;25.20;99.90
11963;DHT22;62678;52.130;5.584;2023-09-08T09:13:18;25.20;99.90
11963;DHT22;62678;52.130;5.584;2023-09-08T09:15:45;25.20;99.90
11963;DHT22;62678;52.130;5.584;2023-09-08T09:18:13;25.30;98.20
11963;DHT22;62678;52.130;5.584;2023-09-08T09:20:41;25.30;94.20
11963;DHT22;62678;52.130;5.584;2023-09-08T09:23:08;25.30;95.60
11963;DHT22;62678;52.130;5.584;2023-09-08T09:25:37;25.30;93.00
11963;DHT22;62678;52.130;5.584;2023-09-08T09:28:06;25.40;90.30
11963;DHT22;62678;52.130;5.584;2023-09-08T09:30:49;25.50;93.30
11963;DHT22;62678;52.130;5.584;2023-09-08T09:33:18;25.50;75.50
11963;DHT22;62678;52.130;5.584;2023-09-08T09:35:46;25.60;75.60
11963;DHT22;62678;52.130;5.584;2023-09-08T09:38:14;25.80;65.60
11963;DHT22;62678;52.130;5.584;2023-09-08T09:40:41;25.70;55.10
11963;DHT22;62678;52.130;5.584;2023-09-08T09:43:10;25.80;66.40
11963;DHT22;62678;52.130;5.584;2023-09-08T09:45:39;25.90;49.80
11963;DHT22;62678;52.130;5.584;2023-09-08T09:48:08;26.00;42.50
11963;DHT22;62678;52.130;5.584;2023-09-08T09:50:37;26.00;42.80
11963;DHT22;62678;52.130;5.584;2023-09-08T09:53:08;26.00;47.80
11963;DHT22;62678;52.130;5.584;2023-09-08T09:55:37;26.10;44.50
11963;DHT22;62678;52.130;5.584;2023-09-08T09:58:05;26.20;38.30
11963;DHT22;62678;52.130;5.584;2023-09-08T10:00:34;26.30;39.40
11963;DHT22;62678;52.130;5.584;2023-09-08T10:03:04;26.30;44.30
11963;DHT22;62678;52.130;5.584;2023-09-08T10:05:31;26.50;41.00
11963;DHT22;62678;52.130;5.584;2023-09-08T10:07:59;26.60;42.80
11963;DHT22;62678;52.130;5.584;2023-09-08T10:10:27;26.60;39.50
11963;DHT22;62678;52.130;5.584;2023-09-08T10:13:04;26.70;39.20
11963;DHT22;62678;52.130;5.584;2023-09-08T10:15:34;26.70;40.40
11963;DHT22;62678;52.130;5.584;2023-09-08T10:18:04;26.80;39.00
11963;DHT22;62678;52.130;5.584;2023-09-08T10:20:33;27.00;36.60
11963;DHT22;62678;52.130;5.584;2023-09-08T10:23:05;27.00;33.20
11963;DHT22;62678;52.130;5.584;2023-09-08T10:25:37;27.20;25.80
11963;DHT22;62678;52.130;5.584;2023-09-08T10:28:05;27.10;26.50
11963;DHT22;62678;52.130;5.584;2023-09-08T10:30:35;27.10;28.10
11963;DHT22;62678;52.130;5.584;2023-09-08T10:33:03;27.20;29.20
11963;DHT22;62678;52.130;5.584;2023-09-08T10:35:32;27.30;30.00
11963;DHT22;62678;52.130;5.584;2023-09-08T10:38:24;27.30;29.70
11963;DHT22;62678;52.130;5.584;2023-09-08T10:40:51;27.40;26.70
11963;DHT22;62678;52.130;5.584;2023-09-08T10:43:19;27.40;27.90
11963;DHT22;62678;52.130;5.584;2023-09-08T10:45:47;27.50;27.30
11963;DHT22;62678;52.130;5.584;2023-09-08T10:48:14;27.60;24.60
11963;DHT22;62678;52.130;5.584;2023-09-08T10:50:43;27.80;21.50
11963;DHT22;62678;52.130;5.584;2023-09-08T10:53:13;27.80;18.90
11963;DHT22;62678;52.130;5.584;2023-09-08T10:55:42;28.00;18.60
11963;DHT22;62678;52.130;5.584;2023-09-08T10:58:18;28.00;17.10
11963;DHT22;62678;52.130;5.584;2023-09-08T11:00:50;28.20;14.80
11963;DHT22;62678;52.130;5.584;2023-09-08T11:03:27;28.30;10.20
11963;DHT22;62678;52.130;5.584;2023-09-08T11:05:55;28.20;10.60
11963;DHT22;62678;52.130;5.584;2023-09-08T11:08:22;28.30;8.10
11963;DHT22;62678;52.130;5.584;2023-09-08T11:10:50;28.30;7.40
11963;DHT22;62678;52.130;5.584;2023-09-08T11:13:17;28.30;9.00
11963;DHT22;62678;52.130;5.584;2023-09-08T11:15:44;28.40;7.90
11963;DHT22;62678;52.130;5.584;2023-09-08T11:18:13;28.50;7.20
11963;DHT22;62678;52.130;5.584;2023-09-08T11:20:40;28.60;10.40
11963;DHT22;62678;52.130;5.584;2023-09-08T11:23:07;28.60;6.70
11963;DHT22;62678;52.130;5.584;2023-09-08T11:25:34;28.60;6.90
11963;DHT22;62678;52.130;5.584;2023-09-08T11:28:01;28.80;6.30
11963;DHT22;62678;52.130;5.584;2023-09-08T11:30:28;28.80;6.70
11963;DHT22;62678;52.130;5.584;2023-09-08T11:32:56;28.80;7.20
11963;DHT22;62678;52.130;5.584;2023-09-08T11:35:27;28.80;8.70
11963;DHT22;62678;52.130;5.584;2023-09-08T11:37:59;28.90;9.20
11963;DHT22;62678;52.130;5.584;2023-09-08T11:40:26;28.90;9.00
11963;DHT22;62678;52.130;5.584;2023-09-08T11:42:54;29.00;6.80
11963;DHT22;62678;52.130;5.584;2023-09-08T11:45:21;29.00;4.10
11963;DHT22;62678;52.130;5.584;2023-09-08T11:47:49;29.10;1.00
11963;DHT22;62678;52.130;5.584;2023-09-08T11:50:18;29.20;1.10
11963;DHT22;62678;52.130;5.584;2023-09-08T11:52:48;29.20;2.20
11963;DHT22;62678;52.130;5.584;2023-09-08T11:55:15;29.20;1.30
11963;DHT22;62678;52.130;5.584;2023-09-08T11:57:45;29.30;1.00
11963;DHT22;62678;52.130;5.584;2023-09-08T12:00:13;29.50;1.00
11963;DHT22;62678;52.130;5.584;2023-09-08T12:02:44;29.60;1.00
11963;DHT22;62678;52.130;5.584;2023-09-08T12:05:12;29.60;1.00
11963;DHT22;62678;52.130;5.584;2023-09-08T12:07:40;29.70;1.00
11963;DHT22;62678;52.130;5.584;2023-09-08T12:10:10;29.90;1.00
11963;DHT22;62678;52.130;5.584;2023-09-08T12:12:45;30.00;1.00
11963;DHT22;62678;52.130;5.584;2023-09-08T12:17:54;30.40;1.00
11963;DHT22;62678;52.130;5.584;2023-09-08T12:20:21;30.40;1.00
11963;DHT22;62678;52.130;5.584;2023-09-08T12:22:48;30.30;1.00
11963;DHT22;62678;52.130;5.584;2023-09-08T12:25:18;30.40;1.00
11963;DHT22;62678;52.130;5.584;2023-09-08T12:27:50;30.30;1.00
11963;DHT22;62678;52.130;5.584;2023-09-08T12:30:19;30.20;1.00
11963;DHT22;62678;52.130;5.584;2023-09-08T12:32:48;30.30;1.00
11963;DHT22;62678;52.130;5.584;2023-09-08T12:35:25;30.40;1.00
11963;DHT22;62678;52.130;5.584;2023-09-08T12:38:04;30.40;1.00
11963;DHT22;62678;52.130;5.584;2023-09-08T12:40:36;30.50;1.00
11963;DHT22;62678;52.130;5.584;2023-09-08T12:43:04;30.60;1.00
11963;DHT22;62678;52.130;5.584;2023-09-08T12:45:31;30.70;1.00
11963;DHT22;62678;52.130;5.584;2023-09-08T12:48:00;30.50;1.00
11963;DHT22;62678;52.130;5.584;2023-09-08T12:50:29;30.70;1.00
11963;DHT22;62678;52.130;5.584;2023-09-08T12:52:56;30.70;1.00
11963;DHT22;62678;52.130;5.584;2023-09-08T12:55:24;30.70;1.00
11963;DHT22;62678;52.130;5.584;2023-09-08T12:57:53;30.90;1.00
11963;DHT22;62678;52.130;5.584;2023-09-08T13:00:22;31.00;1.00
11963;DHT22;62678;52.130;5.584;2023-09-08T13:02:49;30.90;1.00
11963;DHT22;62678;52.130;5.584;2023-09-08T13:05:17;30.90;1.00
11963;DHT22;62678;52.130;5.584;2023-09-08T13:07:44;30.90;1.00
11963;DHT22;62678;52.130;5.584;2023-09-08T13:10:11;31.00;1.00
11963;DHT22;62678;52.130;5.584;2023-09-08T13:12:38;31.00;1.00
11963;DHT22;62678;52.130;5.584;2023-09-08T13:15:07;31.20;1.00
11963;DHT22;62678;52.130;5.584;2023-09-08T13:17:35;31.10;1.00
11963;DHT22;62678;52.130;5.584;2023-09-08T13:20:03;31.20;1.00
11963;DHT22;62678;52.130;5.584;2023-09-08T13:22:30;31.40;1.00
11963;DHT22;62678;52.130;5.584;2023-09-08T13:24:57;31.60;1.00
11963;DHT22;62678;52.130;5.584;2023-09-08T13:27:25;31.60;1.00
11963;DHT22;62678;52.130;5.584;2023-09-08T13:29:53;31.60;1.00
11963;DHT22;62678;52.130;5.584;2023-09-08T13:32:22;31.70;1.00
11963;DHT22;62678;52.130;5.584;2023-09-08T13:34:53;31.90;1.00
11963;DHT22;62678;52.130;5.584;2023-09-08T13:37:20;31.90;1.00
11963;DHT22;62678;52.130;5.584;2023-09-08T13:39:49;31.80;1.00
11963;DHT22;62678;52.130;5.584;2023-09-08T13:42:16;31.80;1.00
11963;DHT22;62678;52.130;5.584;2023-09-08T13:44:43;31.80;1.00
11963;DHT22;62678;52.130;5.584;2023-09-08T13:47:10;31.90;1.00
11963;DHT22;62678;52.130;5.584;2023-09-08T13:49:39;32.10;1.00
11963;DHT22;62678;52.130;5.584;2023-09-08T13:52:06;32.10;1.00
11963;DHT22;62678;52.130;5.584;2023-09-08T13:54:33;32.00;1.00
11963;DHT22;62678;52.130;5.584;2023-09-08T13:57:02;32.10;1.00
11963;DHT22;62678;52.130;5.584;2023-09-08T13:59:30;32.00;1.00
11963;DHT22;62678;52.130;5.584;2023-09-08T14:01:58;31.90;1.00
11963;DHT22;62678;52.130;5.584;2023-09-08T14:04:27;32.00;1.00
11963;DHT22;62678;52.130;5.584;2023-09-08T14:06:55;32.10;1.00
11963;DHT22;62678;52.130;5.584;2023-09-08T14:09:22;32.10;1.00
11963;DHT22;62678;52.130;5.584;2023-09-08T14:11:49;32.10;1.00
11963;DHT22;62678;52.130;5.584;2023-09-08T14:14:17;32.10;1.00
11963;DHT22;62678;52.130;5.584;2023-09-08T14:16:43;32.20;1.00
11963;DHT22;62678;52.130;5.584;2023-09-08T14:19:11;32.10;1.00
11963;DHT22;62678;52.130;5.584;2023-09-08T14:21:38;32.10;1.00
11963;DHT22;62678;52.130;5.584;2023-09-08T14:24:07;32.10;1.00
11963;DHT22;62678;52.130;5.584;2023-09-08T14:26:34;32.10;1.00
11963;DHT22;62678;52.130;5.584;2023-09-08T14:29:01;32.30;1.00
11963;DHT22;62678;52.130;5.584;2023-09-08T14:31:29;32.20;1.00
11963;DHT22;62678;52.130;5.584;2023-09-08T14:33:57;32.10;1.00
11963;DHT22;62678;52.130;5.584;2023-09-08T14:36:24;32.10;1.00
11963;DHT22;62678;52.130;5.584;2023-09-08T14:38:51;32.00;1.00
11963;DHT22;62678;52.130;5.584;2023-09-08T14:41:19;32.10;1.00
11963;DHT22;62678;52.130;5.584;2023-09-08T14:43:46;32.00;1.00
11963;DHT22;62678;52.130;5.584;2023-09-08T14:46:13;32.10;1.00
11963;DHT22;62678;52.130;5.584;2023-09-08T14:48:40;32.30;1.00
11963;DHT22;62678;52.130;5.584;2023-09-08T14:51:07;32.30;1.00
11963;DHT22;62678;52.130;5.584;2023-09-08T14:53:34;32.10;1.00
11963;DHT22;62678;52.130;5.584;2023-09-08T14:56:02;32.30;1.00
11963;DHT22;62678;52.130;5.584;2023-09-08T14:58:32;32.20;1.00
11963;DHT22;62678;52.130;5.584;2023-09-08T15:01:00;32.10;1.00
11963;DHT22;62678;52.130;5.584;2023-09-08T15:03:30;32.20;99.90
11963;DHT22;62678;52.130;5.584;2023-09-08T15:05:58;32.30;1.00
11963;DHT22;62678;52.130;5.584;2023-09-08T15:08:25;32.60;1.00
11963;DHT22;62678;52.130;5.584;2023-09-08T15:10:53;33.00;1.00
11963;DHT22;62678;52.130;5.584;2023-09-08T15:13:20;33.50;1.00
11963;DHT22;62678;52.130;5.584;2023-09-08T15:15:48;34.30;1.00
11963;DHT22;62678;52.130;5.584;2023-09-08T15:18:15;34.20;1.00
11963;DHT22;62678;52.130;5.584;2023-09-08T15:20:50;34.40;1.00
11963;DHT22;62678;52.130;5.584;2023-09-08T15:23:18;34.70;1.00
11963;DHT22;62678;52.130;5.584;2023-09-08T15:25:51;35.10;1.00
11963;DHT22;62678;52.130;5.584;2023-09-08T15:28:19;35.40;1.00
11963;DHT22;62678;52.130;5.584;2023-09-08T15:30:51;35.20;1.00
11963;DHT22;62678;52.130;5.584;2023-09-08T15:33:20;35.70;1.00
11963;DHT22;62678;52.130;5.584;2023-09-08T15:35:48;35.60;1.00
11963;DHT22;62678;52.130;5.584;2023-09-08T15:38:15;36.00;1.00
11963;DHT22;62678;52.130;5.584;2023-09-08T15:41:13;36.10;1.00
11963;DHT22;62678;52.130;5.584;2023-09-08T15:43:46;36.30;1.00